createdAt,value
2022-10-24T00:00:44.804Z,2.70
2022-10-24T00:03:11.854Z,2.57
2022-10-24T00:05:43.008Z,2.65
2022-10-24T00:08:09.919Z,2.60
2022-10-24T00:10:36.405Z,2.50
2022-10-24T00:13:04.161Z,2.40
2022-10-24T00:15:30.562Z,2.60
2022-10-24T00:17:56.965Z,2.50
2022-10-24T00:20:23.396Z,2.35
2022-10-24T00:22:49.780Z,2.30
2022-10-24T00:25:16.164Z,2.35
2022-10-24T00:27:42.570Z,2.00
2022-10-24T00:30:09.421Z,2.30
2022-10-24T00:32:35.804Z,2.15
2022-10-24T00:35:02.231Z,1.85
2022-10-24T00:37:28.631Z,2.25
2022-10-24T00:39:55.057Z,2.00
2022-10-24T00:42:21.472Z,2.03
2022-10-24T00:44:51.609Z,2.22
2022-10-24T00:47:21.842Z,2.05
2022-10-24T00:50:00.971Z,2.17
2022-10-24T00:52:38.452Z,2.20
2022-10-24T00:55:06.785Z,2.22
2022-10-24T00:57:50.232Z,2.20
2022-10-24T01:00:23.122Z,2.03
2022-10-24T01:02:49.619Z,2.28
2022-10-24T01:05:18.332Z,2.50
2022-10-24T01:08:03.182Z,2.40
2022-10-24T01:10:53.631Z,2.53
2022-10-24T01:13:46.227Z,2.50
2022-10-24T01:16:14.525Z,2.47
2022-10-24T01:19:08.143Z,2.47
2022-10-24T01:21:45.761Z,2.30
2022-10-24T01:24:30.445Z,2.50
2022-10-24T01:27:07.912Z,2.50
2022-10-24T01:29:48.400Z,2.60
2022-10-24T01:32:26.973Z,2.63
2022-10-24T01:34:59.275Z,2.50
2022-10-24T01:37:33.588Z,2.28
2022-10-24T01:40:06.569Z,2.47
2022-10-24T01:42:36.187Z,2.38
2022-10-24T01:45:04.909Z,2.30
2022-10-24T01:47:41.713Z,2.60
2022-10-24T01:50:13.471Z,2.38
2022-10-24T01:52:42.652Z,2.40
2022-10-24T01:55:10.925Z,2.40
2022-10-24T01:57:37.502Z,2.20
2022-10-24T02:00:05.240Z,2.50
2022-10-24T02:02:36.900Z,2.28
2022-10-24T02:05:07.245Z,2.13
2022-10-24T02:07:36.970Z,2.20
2022-10-24T02:10:09.925Z,2.17
2022-10-24T02:12:41.010Z,2.00
2022-10-24T02:15:16.481Z,2.03
2022-10-24T02:17:43.299Z,1.98
2022-10-24T02:20:11.466Z,2.40
2022-10-24T02:23:00.725Z,1.93
2022-10-24T02:25:33.902Z,1.83
2022-10-24T02:28:15.362Z,2.10
2022-10-24T02:30:50.380Z,2.03
2022-10-24T02:33:18.197Z,1.65
2022-10-24T02:35:47.290Z,1.90
2022-10-24T02:38:37.401Z,2.00
2022-10-24T02:41:09.064Z,1.77
2022-10-24T02:43:36.016Z,1.80
2022-10-24T02:46:04.888Z,1.90
2022-10-24T02:48:35.979Z,1.97
2022-10-24T02:51:03.518Z,1.60
2022-10-24T02:53:29.931Z,1.60
2022-10-24T02:55:56.459Z,1.65
2022-10-24T02:58:22.924Z,1.65
2022-10-24T03:00:49.529Z,1.70
2022-10-24T03:03:16.007Z,1.63
2022-10-24T03:05:42.445Z,1.60
2022-10-24T03:08:08.961Z,1.40
2022-10-24T03:10:35.379Z,1.45
2022-10-24T03:13:01.793Z,1.17
2022-10-24T03:15:28.149Z,1.45
2022-10-24T03:17:54.529Z,1.60
2022-10-24T03:20:20.995Z,1.60
2022-10-24T03:22:47.350Z,1.52
2022-10-24T03:25:13.705Z,1.60
2022-10-24T03:27:40.089Z,1.60
2022-10-24T03:30:07.334Z,1.38
2022-10-24T03:32:34.013Z,1.40
2022-10-24T03:35:01.643Z,1.40
2022-10-24T03:37:29.244Z,1.20
2022-10-24T03:39:55.922Z,1.30
2022-10-24T03:42:22.385Z,1.35
2022-10-24T03:44:48.754Z,1.40
2022-10-24T03:47:15.329Z,1.25
2022-10-24T03:49:41.717Z,1.30
2022-10-24T03:52:08.805Z,1.20
2022-10-24T03:54:35.193Z,1.30
2022-10-24T03:57:02.000Z,1.20
2022-10-24T03:59:28.677Z,1.10
2022-10-24T04:01:55.329Z,1.13
2022-10-24T04:04:21.754Z,1.05
2022-10-24T04:06:48.170Z,1.40
2022-10-24T04:09:14.571Z,1.30
2022-10-24T04:11:40.930Z,1.20
2022-10-24T04:14:07.336Z,1.20
2022-10-24T04:16:33.684Z,1.48
2022-10-24T04:19:00.113Z,1.20
2022-10-24T04:21:26.574Z,1.45
2022-10-24T04:23:52.997Z,1.30
2022-10-24T04:26:19.450Z,1.30
2022-10-24T04:28:45.910Z,1.75
2022-10-24T04:31:12.770Z,1.30
2022-10-24T04:33:39.158Z,1.30
2022-10-24T04:36:05.845Z,1.35
2022-10-24T04:38:33.520Z,1.77
2022-10-24T04:41:00.771Z,1.42
2022-10-24T04:43:27.548Z,1.30
2022-10-24T04:45:53.940Z,1.35
2022-10-24T04:48:20.903Z,1.55
2022-10-24T04:50:47.549Z,1.40
2022-10-24T04:53:14.298Z,1.40
2022-10-24T04:55:40.934Z,1.25
2022-10-24T04:58:07.341Z,1.40
2022-10-24T05:00:33.805Z,1.10
2022-10-24T05:03:00.202Z,1.37
2022-10-24T05:05:26.782Z,1.50
2022-10-24T05:07:53.290Z,1.30
2022-10-24T05:10:20.822Z,1.17
2022-10-24T05:12:47.547Z,1.73
2022-10-24T05:15:14.116Z,1.23
2022-10-24T05:17:40.632Z,1.27
2022-10-24T05:20:07.582Z,1.33
2022-10-24T05:22:33.943Z,1.50
2022-10-24T05:25:00.331Z,1.60
2022-10-24T05:27:26.902Z,1.87
2022-10-24T05:29:54.419Z,1.30
2022-10-24T05:32:22.243Z,1.50
2022-10-24T05:34:48.908Z,1.50
2022-10-24T05:37:15.419Z,2.15
2022-10-24T05:39:41.906Z,1.30
2022-10-24T05:42:08.393Z,2.00
2022-10-24T05:44:34.817Z,1.40
2022-10-24T05:47:01.234Z,1.40
2022-10-24T05:49:27.747Z,1.70
2022-10-24T05:51:54.179Z,1.93
2022-10-24T05:54:20.557Z,1.60
2022-10-24T05:56:47.006Z,1.60
2022-10-24T05:59:13.375Z,1.88
2022-10-24T06:01:40.353Z,1.60
2022-10-24T06:04:10.021Z,1.47
2022-10-24T06:06:40.700Z,1.58
2022-10-24T06:09:07.493Z,1.80
2022-10-24T06:11:34.134Z,1.83
2022-10-24T06:14:00.821Z,1.88
2022-10-24T06:16:27.305Z,1.60
2022-10-24T06:18:53.696Z,1.80
2022-10-24T06:21:20.097Z,1.75
2022-10-24T06:23:46.510Z,1.83
2022-10-24T06:26:12.961Z,1.50
2022-10-24T06:28:39.344Z,1.57
2022-10-24T06:31:05.780Z,1.70
2022-10-24T06:33:32.250Z,1.40
2022-10-24T06:36:03.052Z,1.50
2022-10-24T06:38:29.424Z,1.90
2022-10-24T06:40:55.871Z,1.97
2022-10-24T06:43:22.251Z,1.77
2022-10-24T06:45:48.617Z,2.03
2022-10-24T06:48:15.027Z,2.10
2022-10-24T06:50:41.417Z,1.90
2022-10-24T06:53:09.699Z,1.47
2022-10-24T06:55:39.251Z,1.60
2022-10-24T06:58:06.036Z,1.50
2022-10-24T07:00:34.306Z,1.40
2022-10-24T07:03:00.792Z,1.30
2022-10-24T07:05:27.276Z,1.77
2022-10-24T07:07:53.682Z,1.65
2022-10-24T07:10:23.087Z,1.75
2022-10-24T07:12:49.510Z,1.60
2022-10-24T07:15:15.937Z,1.25
2022-10-24T07:17:43.424Z,1.60
2022-10-24T07:20:11.598Z,1.85
2022-10-24T07:22:38.218Z,1.23
2022-10-24T07:25:06.178Z,1.70
2022-10-24T07:27:33.465Z,1.70
2022-10-24T07:30:03.151Z,1.60
2022-10-24T07:32:32.060Z,1.25
2022-10-24T07:34:58.497Z,1.52
2022-10-24T07:39:52.356Z,1.67
2022-10-24T07:42:18.753Z,1.60
2022-10-24T07:44:45.475Z,1.40
2022-10-24T07:47:12.010Z,1.60
2022-10-24T07:49:38.801Z,1.85
2022-10-24T07:52:05.653Z,1.88
2022-10-24T07:54:36.096Z,1.70
2022-10-24T07:57:03.994Z,1.60
2022-10-24T07:59:41.730Z,1.80
2022-10-24T08:02:11.089Z,1.30
2022-10-24T08:04:37.513Z,1.90
2022-10-24T08:07:03.939Z,1.60
2022-10-24T08:09:30.340Z,1.40
2022-10-24T08:11:56.715Z,1.80
2022-10-24T08:14:23.200Z,1.50
2022-10-24T08:16:49.654Z,1.30
2022-10-24T08:19:16.146Z,1.60
2022-10-24T08:21:42.588Z,1.50
2022-10-24T08:24:09.077Z,1.20
2022-10-24T08:26:36.435Z,1.40
2022-10-24T08:29:02.835Z,1.65
2022-10-24T08:31:29.230Z,1.40
2022-10-24T08:33:56.051Z,1.20
2022-10-24T08:36:26.697Z,1.70
2022-10-24T08:38:53.241Z,1.40
2022-10-24T08:41:25.771Z,1.45
2022-10-24T08:43:54.111Z,1.67
2022-10-24T08:46:46.351Z,1.70
2022-10-24T08:49:18.878Z,1.70
2022-10-24T08:52:02.384Z,1.70
2022-10-24T08:54:39.577Z,1.70
2022-10-24T08:57:07.316Z,1.87
2022-10-24T08:59:36.229Z,1.58
2022-10-24T09:02:15.146Z,1.63
2022-10-24T09:04:49.130Z,1.95
2022-10-24T09:07:20.851Z,1.65
2022-10-24T09:09:51.491Z,1.60
2022-10-24T09:12:20.521Z,1.70
2022-10-24T09:14:54.599Z,1.63
2022-10-24T09:17:24.670Z,1.83
2022-10-24T09:20:00.100Z,1.83
2022-10-24T09:22:29.969Z,1.53
2022-10-24T09:25:05.354Z,1.50
2022-10-24T09:27:39.875Z,1.35
2022-10-24T09:30:11.715Z,1.38
2022-10-24T09:32:38.366Z,1.40
2022-10-24T09:35:12.328Z,1.60
2022-10-24T09:37:50.682Z,1.85
2022-10-24T09:40:20.161Z,1.73
2022-10-24T09:42:56.640Z,1.92
2022-10-24T09:45:32.258Z,1.92
2022-10-24T09:48:03.045Z,2.20
2022-10-24T09:50:32.885Z,2.20
2022-10-24T09:52:59.650Z,1.90
2022-10-24T09:55:27.893Z,1.88
2022-10-24T09:57:56.135Z,1.80
2022-10-24T10:00:31.185Z,1.53
2022-10-24T10:03:04.351Z,1.70
2022-10-24T10:05:48.310Z,1.85
2022-10-24T10:08:27.158Z,2.33
2022-10-24T10:10:58.173Z,1.90
2022-10-24T10:13:25.721Z,1.70
2022-10-24T10:15:56.367Z,1.60
2022-10-24T10:18:22.733Z,1.45
2022-10-24T10:21:10.686Z,1.65
2022-10-24T10:23:38.753Z,1.70
2022-10-24T10:26:27.871Z,1.83
2022-10-24T10:29:26.442Z,2.00
2022-10-24T10:32:23.045Z,1.70
2022-10-24T10:35:03.259Z,1.90
2022-10-24T10:37:29.608Z,1.77
2022-10-24T10:40:18.453Z,1.53
2022-10-24T10:43:18.935Z,1.40
2022-10-24T10:46:09.710Z,1.73
2022-10-24T10:49:21.287Z,1.55
2022-10-24T10:51:53.541Z,1.70
2022-10-24T10:54:47.934Z,1.47
2022-10-24T10:57:19.490Z,1.70
2022-10-24T11:00:15.209Z,1.45
2022-10-24T11:03:13.787Z,1.67
2022-10-24T11:06:05.342Z,1.60
2022-10-24T11:08:31.668Z,1.70
2022-10-24T11:11:03.910Z,1.52
2022-10-24T11:13:46.738Z,1.63
2022-10-24T11:16:19.353Z,1.52
2022-10-24T11:18:50.841Z,1.40
2022-10-24T11:21:20.289Z,1.60
2022-10-24T11:24:00.240Z,1.60
2022-10-24T11:26:39.487Z,1.60
2022-10-24T11:29:19.899Z,1.73
2022-10-24T11:31:56.102Z,1.92
2022-10-24T11:34:31.027Z,2.03
2022-10-24T11:37:05.959Z,2.10
2022-10-24T11:39:48.694Z,1.92
2022-10-24T11:42:18.120Z,2.00
2022-10-24T11:44:53.671Z,2.00
2022-10-24T11:47:26.274Z,1.60
2022-10-24T11:50:27.588Z,1.90
2022-10-24T11:53:20.603Z,2.00
2022-10-24T11:55:53.540Z,1.60
2022-10-24T11:58:22.942Z,1.80
2022-10-24T12:01:04.589Z,1.50
2022-10-24T12:03:31.146Z,1.90
2022-10-24T12:06:22.329Z,1.70
2022-10-24T12:09:23.199Z,2.03
2022-10-24T12:11:55.658Z,1.83
2022-10-24T12:14:48.074Z,1.67
2022-10-24T12:17:35.961Z,1.80
2022-10-24T12:20:06.904Z,1.88
2022-10-24T12:22:40.234Z,1.70
2022-10-24T12:25:28.746Z,1.60
2022-10-24T12:27:58.216Z,1.60
2022-10-24T12:30:27.663Z,1.30
2022-10-24T12:33:09.240Z,1.40
2022-10-24T12:35:48.007Z,1.60
2022-10-24T12:38:28.302Z,1.42
2022-10-24T12:41:04.933Z,1.60
2022-10-24T12:43:35.867Z,1.40
2022-10-24T12:46:23.318Z,1.50
2022-10-24T12:48:58.934Z,2.30
2022-10-24T12:51:35.656Z,2.53
2022-10-24T12:54:15.547Z,2.73
2022-10-24T12:56:51.055Z,2.97
2022-10-24T12:59:20.359Z,2.70
2022-10-24T13:01:48.968Z,2.30
2022-10-24T13:07:36.142Z,1.87
2022-10-24T13:10:21.100Z,1.70
2022-10-24T13:12:59.502Z,2.03
2022-10-24T13:15:44.685Z,2.00
2022-10-24T13:18:49.989Z,2.00
2022-10-24T13:21:25.120Z,1.70
2022-10-24T13:23:51.968Z,1.77
2022-10-24T13:26:39.066Z,1.88
2022-10-24T13:29:13.577Z,1.90
2022-10-24T13:31:43.683Z,1.77
2022-10-24T13:34:14.533Z,1.90
2022-10-24T13:36:42.074Z,2.17
2022-10-24T13:39:16.137Z,1.80
2022-10-24T13:41:50.027Z,1.85
2022-10-24T13:44:29.306Z,1.80
2022-10-24T13:47:11.764Z,1.90
2022-10-24T13:49:46.790Z,1.90
2022-10-24T13:52:21.880Z,1.75
2022-10-24T13:54:56.479Z,1.73
2022-10-24T13:57:23.826Z,1.70
2022-10-24T13:59:59.531Z,1.70
2022-10-24T14:02:32.296Z,1.83
2022-10-24T14:05:00.487Z,1.90
2022-10-24T14:07:30.438Z,1.55
2022-10-24T14:10:08.525Z,2.05
2022-10-24T14:12:36.981Z,1.50
2022-10-24T14:15:04.354Z,1.90
2022-10-24T14:17:33.854Z,2.03
2022-10-24T14:20:18.637Z,2.38
2022-10-24T14:22:45.260Z,2.30
2022-10-24T14:25:26.553Z,2.10
2022-10-24T14:27:55.359Z,2.30
2022-10-24T14:30:25.273Z,2.25
2022-10-24T14:33:20.258Z,2.38
2022-10-24T14:35:50.372Z,2.03
2022-10-24T14:38:19.550Z,2.40
2022-10-24T14:40:49.468Z,2.38
2022-10-24T14:43:30.265Z,2.00
2022-10-24T14:46:05.693Z,1.98
2022-10-24T14:48:32.259Z,1.65
2022-10-24T14:51:07.289Z,1.80
2022-10-24T14:53:33.989Z,2.03
2022-10-24T14:56:01.366Z,1.88
2022-10-24T14:58:30.554Z,1.85
2022-10-24T15:00:58.501Z,2.03
2022-10-24T15:03:26.675Z,2.00
2022-10-24T15:05:57.484Z,1.90
2022-10-24T15:08:27.588Z,1.80
2022-10-24T15:11:27.849Z,1.80
2022-10-24T15:14:06.351Z,2.15
2022-10-24T15:16:39.384Z,1.80
2022-10-24T15:19:13.642Z,1.75
2022-10-24T15:21:42.984Z,1.92
2022-10-24T15:24:43.344Z,2.00
2022-10-24T15:27:12.589Z,1.90
2022-10-24T15:29:40.596Z,2.10
2022-10-24T15:32:10.459Z,1.90
2022-10-24T15:34:36.818Z,1.95
2022-10-24T15:37:03.222Z,2.03
2022-10-24T15:39:29.613Z,2.15
2022-10-24T15:41:57.421Z,2.10
2022-10-24T15:44:27.204Z,2.05
2022-10-24T15:46:54.118Z,1.92
2022-10-24T15:49:20.591Z,2.33
2022-10-24T15:51:50.413Z,2.00
2022-10-24T15:54:21.706Z,2.00
2022-10-24T15:56:49.473Z,2.17
2022-10-24T15:59:16.008Z,2.47
2022-10-24T16:01:54.658Z,2.20
2022-10-24T16:04:21.971Z,2.15
2022-10-24T16:06:50.221Z,2.20
2022-10-24T16:09:20.564Z,2.25
2022-10-24T16:11:47.302Z,2.30
2022-10-24T16:14:15.593Z,2.42
2022-10-24T16:16:42.347Z,2.45
2022-10-24T16:19:08.959Z,3.93
2022-10-24T16:21:35.616Z,2.78
2022-10-24T16:24:02.189Z,2.72
2022-10-24T16:26:28.578Z,2.80
2022-10-24T16:28:55.023Z,2.55
2022-10-24T16:31:21.502Z,2.60
2022-10-24T16:33:47.904Z,2.67
2022-10-24T16:36:15.123Z,2.80
2022-10-24T16:38:41.966Z,3.10
2022-10-24T16:41:14.803Z,2.80
2022-10-24T16:43:42.556Z,3.10
2022-10-24T16:46:19.110Z,2.95
2022-10-24T16:48:46.356Z,2.90
2022-10-24T16:51:23.513Z,3.20
2022-10-24T16:53:50.012Z,3.17
2022-10-24T16:56:16.517Z,3.40
2022-10-24T16:58:43.007Z,3.00
2022-10-24T17:01:12.424Z,2.60
2022-10-24T17:03:39.727Z,2.70
2022-10-24T17:06:07.186Z,3.10
2022-10-24T17:08:33.717Z,3.03
2022-10-24T17:11:00.199Z,2.90
2022-10-24T17:13:27.568Z,3.10
2022-10-24T17:15:54.022Z,3.22
2022-10-24T17:18:20.460Z,2.72
2022-10-24T17:20:47.082Z,3.00
2022-10-24T17:23:16.921Z,2.50
2022-10-24T17:25:45.189Z,2.63
2022-10-24T17:28:13.831Z,2.97
2022-10-24T17:30:40.407Z,2.80
2022-10-24T17:33:06.993Z,2.97
2022-10-24T17:35:36.734Z,3.28
2022-10-24T17:38:24.791Z,4.00
2022-10-24T17:40:52.660Z,3.47
2022-10-24T17:43:24.690Z,3.75
2022-10-24T17:45:52.483Z,3.77
2022-10-24T17:48:19.156Z,3.38
2022-10-24T17:50:46.392Z,4.05
2022-10-24T17:53:18.280Z,4.00
2022-10-24T17:55:47.073Z,4.32
2022-10-24T17:58:14.627Z,4.37
2022-10-24T18:00:41.355Z,4.38
2022-10-24T18:03:07.970Z,3.90
2022-10-24T18:05:34.382Z,3.92
2022-10-24T18:08:00.757Z,4.07
2022-10-24T18:10:27.187Z,4.30
2022-10-24T18:12:53.649Z,4.10
2022-10-24T18:15:20.253Z,4.38
2022-10-24T18:17:47.729Z,4.60
2022-10-24T18:20:15.309Z,4.47
2022-10-24T18:22:43.078Z,4.30
2022-10-24T18:25:11.653Z,4.13
2022-10-24T18:27:38.153Z,3.90
2022-10-24T18:30:05.818Z,3.90
2022-10-24T18:32:32.666Z,3.70
2022-10-24T18:34:59.211Z,3.43
2022-10-24T18:37:26.100Z,3.72
2022-10-24T18:39:52.693Z,3.05
2022-10-24T18:42:44.544Z,3.67
2022-10-24T18:45:13.396Z,3.70
2022-10-24T18:47:40.186Z,3.07
2022-10-24T18:50:07.090Z,3.40
2022-10-24T18:52:47.956Z,3.63
2022-10-24T18:55:21.324Z,3.80
2022-10-24T18:57:49.205Z,3.90
2022-10-24T19:00:19.004Z,4.03
2022-10-24T19:03:05.258Z,3.97
2022-10-24T19:05:37.691Z,4.10
2022-10-24T19:08:12.074Z,3.75
2022-10-24T19:10:38.604Z,3.75
2022-10-24T19:13:05.083Z,3.63
2022-10-24T19:15:31.591Z,3.92
2022-10-24T19:17:58.036Z,3.50
2022-10-24T19:20:28.264Z,3.13
2022-10-24T19:22:54.652Z,3.10
2022-10-24T19:25:21.124Z,3.27
2022-10-24T19:27:47.593Z,2.92
2022-10-24T19:30:14.046Z,2.70
2022-10-24T19:32:40.482Z,2.65
2022-10-24T19:35:07.256Z,2.30
2022-10-24T19:37:33.800Z,2.90
2022-10-24T19:40:00.225Z,2.20
2022-10-24T19:42:26.721Z,2.45
2022-10-24T19:44:53.119Z,2.28
2022-10-24T19:47:20.132Z,2.90
2022-10-24T19:49:46.554Z,2.73
2022-10-24T19:52:13.008Z,3.10
2022-10-24T19:54:39.406Z,2.60
2022-10-24T19:57:05.791Z,2.90
2022-10-24T19:59:32.149Z,2.50
2022-10-24T20:04:30.484Z,2.60
2022-10-24T20:06:57.332Z,2.50
2022-10-24T20:09:23.680Z,2.30
2022-10-24T20:11:50.097Z,2.70
2022-10-24T20:14:16.603Z,2.50
2022-10-24T20:16:43.023Z,2.40
2022-10-24T20:19:09.369Z,2.55
2022-10-24T20:21:35.746Z,2.58
2022-10-24T20:24:02.158Z,2.75
2022-10-24T20:26:28.630Z,3.20
2022-10-24T20:28:55.824Z,2.88
2022-10-24T20:31:29.936Z,3.03
2022-10-24T20:33:58.823Z,3.30
2022-10-24T20:36:27.948Z,3.50
2022-10-24T20:38:54.336Z,3.37
2022-10-24T20:41:20.939Z,3.75
2022-10-24T20:43:47.329Z,2.92
2022-10-24T20:46:13.775Z,2.97
2022-10-24T20:48:40.236Z,3.30
2022-10-24T20:51:15.508Z,3.07
2022-10-24T20:53:42.693Z,3.00
2022-10-24T20:56:12.017Z,2.60
2022-10-24T20:58:41.012Z,2.72
2022-10-24T21:01:09.812Z,2.65
2022-10-24T21:03:37.155Z,3.00
2022-10-24T21:06:04.533Z,2.95
2022-10-24T21:08:31.032Z,2.92
2022-10-24T21:10:57.664Z,2.97
2022-10-24T21:13:24.258Z,3.20
2022-10-24T21:15:56.792Z,3.43
2022-10-24T21:18:23.185Z,3.80
2022-10-24T21:20:49.600Z,3.75
2022-10-24T21:23:16.244Z,3.50
2022-10-24T21:28:13.953Z,3.63
2022-10-24T21:30:40.307Z,4.00
2022-10-24T21:33:06.782Z,3.63
2022-10-24T21:35:33.185Z,3.95
2022-10-24T21:37:59.551Z,3.30
2022-10-24T21:40:25.963Z,3.70
2022-10-24T21:42:52.368Z,3.85
2022-10-24T21:45:18.772Z,3.78
2022-10-24T21:47:45.135Z,3.70
2022-10-24T21:50:11.550Z,3.47
2022-10-24T21:52:37.923Z,3.60
2022-10-24T21:55:04.555Z,3.45
2022-10-24T21:57:30.949Z,3.25
2022-10-24T21:59:57.393Z,3.38
2022-10-24T22:02:23.871Z,3.78
2022-10-24T22:04:50.352Z,3.80
2022-10-24T22:07:16.838Z,4.10
2022-10-24T22:09:43.291Z,4.22
2022-10-24T22:12:09.722Z,3.90
2022-10-24T22:14:36.137Z,4.30
2022-10-24T22:17:02.577Z,4.27
2022-10-24T22:19:29.220Z,4.57
2022-10-24T22:21:55.710Z,4.07
2022-10-24T22:24:23.259Z,4.40
2022-10-24T22:26:50.816Z,4.10
2022-10-24T22:29:22.689Z,3.70
2022-10-24T22:31:50.409Z,4.53
2022-10-24T22:34:19.597Z,4.78
2022-10-24T22:36:54.973Z,4.68
2022-10-24T22:39:24.287Z,4.90
2022-10-24T22:41:51.207Z,4.60
2022-10-24T22:44:19.512Z,4.40
2022-10-24T22:47:14.639Z,4.70
2022-10-24T22:49:59.489Z,5.25
2022-10-24T22:52:26.083Z,4.95
2022-10-24T22:54:52.823Z,5.20
2022-10-24T22:57:19.493Z,5.15
2022-10-24T22:59:46.176Z,5.10
2022-10-24T23:02:32.783Z,5.30
2022-10-24T23:05:13.663Z,5.40
2022-10-24T23:07:57.777Z,4.93
2022-10-24T23:10:24.268Z,5.15
2022-10-24T23:12:51.105Z,5.07
2022-10-24T23:15:19.990Z,5.18
2022-10-24T23:17:47.632Z,4.43
2022-10-24T23:20:39.115Z,4.13
2022-10-24T23:23:17.148Z,3.53
2022-10-24T23:26:01.372Z,3.80
2022-10-24T23:28:55.904Z,3.92
2022-10-24T23:31:22.622Z,3.60
2022-10-24T23:33:49.371Z,3.30
2022-10-24T23:36:24.033Z,3.30
2022-10-24T23:38:53.297Z,3.50
2022-10-24T23:41:19.990Z,3.50
2022-10-24T23:43:46.613Z,3.67
2022-10-24T23:46:28.601Z,4.17
2022-10-24T23:49:22.641Z,3.60
2022-10-24T23:52:16.708Z,4.03
2022-10-24T23:54:43.417Z,3.88
2022-10-24T23:57:16.044Z,3.50
2022-10-24T23:59:43.076Z,3.70
